createdAt,value
2018-04-27T00:02:04.925Z,99.00
2018-04-27T00:04:32.455Z,98.80
2018-04-27T00:07:00.118Z,98.90
2018-04-27T00:09:27.668Z,99.20
2018-04-27T00:11:55.230Z,99.70
2018-04-27T00:14:22.837Z,99.20
2018-04-27T00:16:50.394Z,99.20
2018-04-27T00:19:17.938Z,99.20
2018-04-27T00:21:46.267Z,99.30
2018-04-27T00:24:13.824Z,99.30
2018-04-27T00:26:41.359Z,99.10
2018-04-27T00:29:08.917Z,99.50
2018-04-27T00:31:36.468Z,99.60
2018-04-27T00:34:04.832Z,99.80
2018-04-27T00:36:33.149Z,99.60
2018-04-27T00:39:00.711Z,99.60
2018-04-27T00:41:29.021Z,99.90
2018-04-27T00:43:56.577Z,99.90
2018-04-27T00:46:24.170Z,99.90
2018-04-27T00:48:51.707Z,99.50
2018-04-27T00:51:19.253Z,99.40
2018-04-27T00:53:46.911Z,99.90
2018-04-27T00:56:14.486Z,99.50
2018-04-27T00:58:42.024Z,99.20
2018-04-27T01:01:09.585Z,99.10
2018-04-27T01:03:37.114Z,99.40
2018-04-27T01:06:05.451Z,99.40
2018-04-27T01:08:33.063Z,99.30
2018-04-27T01:11:00.602Z,99.30
2018-04-27T01:13:28.252Z,99.30
2018-04-27T01:15:55.823Z,98.90
2018-04-27T01:18:23.411Z,98.90
2018-04-27T01:20:50.966Z,98.90
2018-04-27T01:23:18.607Z,99.10
2018-04-27T01:25:46.147Z,99.30
2018-04-27T01:28:13.700Z,99.50
2018-04-27T01:30:41.268Z,99.30
2018-04-27T01:33:08.803Z,99.00
2018-04-27T01:35:36.372Z,98.70
2018-04-27T01:38:03.939Z,98.90
2018-04-27T01:40:31.463Z,99.00
2018-04-27T01:42:59.007Z,99.20
2018-04-27T01:45:27.142Z,99.30
2018-04-27T01:47:54.698Z,99.30
2018-04-27T01:50:22.222Z,99.00
2018-04-27T01:52:49.804Z,99.20
2018-04-27T01:55:17.343Z,99.00
2018-04-27T01:57:44.904Z,99.40
2018-04-27T02:00:12.492Z,99.20
2018-04-27T02:02:40.037Z,99.50
2018-04-27T02:05:07.600Z,99.50
2018-04-27T02:07:35.158Z,99.50
2018-04-27T02:10:02.715Z,99.30
2018-04-27T02:12:30.238Z,99.20
2018-04-27T02:14:57.766Z,99.40
2018-04-27T02:17:25.276Z,99.70
2018-04-27T02:19:53.550Z,99.30
2018-04-27T02:22:21.853Z,99.30
2018-04-27T02:24:49.364Z,99.30
2018-04-27T02:27:16.875Z,99.20
2018-04-27T02:29:44.415Z,99.30
2018-04-27T02:32:11.939Z,99.50
2018-04-27T02:34:39.433Z,99.80
2018-04-27T02:37:06.973Z,99.80
2018-04-27T02:39:34.472Z,99.80
2018-04-27T02:42:01.982Z,99.80
2018-04-27T02:44:29.533Z,99.60
2018-04-27T02:46:57.055Z,99.80
2018-04-27T02:49:24.571Z,99.50
2018-04-27T02:51:52.875Z,99.80
2018-04-27T02:54:20.423Z,99.80
2018-04-27T02:56:48.701Z,99.80
2018-04-27T02:59:16.206Z,99.80
2018-04-27T03:01:43.810Z,99.80
2018-04-27T03:04:11.277Z,99.70
2018-04-27T03:06:39.545Z,99.80
2018-04-27T03:09:07.165Z,99.80
2018-04-27T03:11:34.700Z,99.60
2018-04-27T03:14:02.206Z,99.40
2018-04-27T03:16:29.750Z,99.80
2018-04-27T03:18:57.299Z,99.50
2018-04-27T03:21:24.833Z,99.50
2018-04-27T03:23:53.194Z,99.50
2018-04-27T03:26:20.654Z,99.50
2018-04-27T03:28:48.201Z,99.80
2018-04-27T03:31:15.726Z,99.50
2018-04-27T03:33:44.022Z,99.70
2018-04-27T03:36:11.532Z,99.70
2018-04-27T03:38:39.162Z,99.50
2018-04-27T03:41:06.663Z,99.50
2018-04-27T03:43:34.178Z,99.50
2018-04-27T03:46:01.763Z,99.70
2018-04-27T03:48:29.299Z,99.70
2018-04-27T03:50:57.535Z,99.60
2018-04-27T03:53:25.834Z,99.70
2018-04-27T03:55:53.338Z,99.70
2018-04-27T03:58:20.904Z,99.90
2018-04-27T04:01:00.161Z,99.60
2018-04-27T04:03:39.445Z,99.70
2018-04-27T04:06:06.978Z,99.60
2018-04-27T04:08:34.566Z,99.60
2018-04-27T04:11:02.080Z,99.70
2018-04-27T04:13:30.378Z,99.60
2018-04-27T04:15:57.902Z,99.60
2018-04-27T04:18:25.456Z,99.60
2018-04-27T04:20:53.025Z,99.60
2018-04-27T04:23:20.546Z,99.90
2018-04-27T04:25:48.051Z,99.80
2018-04-27T04:28:16.362Z,99.90
2018-04-27T04:30:43.892Z,99.90
2018-04-27T04:33:12.156Z,99.80
2018-04-27T04:35:39.673Z,99.80
2018-04-27T04:38:07.223Z,99.90
2018-04-27T04:40:34.742Z,99.70
2018-04-27T04:43:02.322Z,99.90
2018-04-27T04:45:29.866Z,99.90
2018-04-27T04:47:57.365Z,99.90
2018-04-27T04:50:24.924Z,99.90
2018-04-27T04:52:52.453Z,99.90
2018-04-27T04:55:19.953Z,99.90
2018-04-27T04:57:47.450Z,99.70
2018-04-27T05:00:15.766Z,99.90
2018-04-27T05:02:43.299Z,99.90
2018-04-27T05:05:11.615Z,99.90
2018-04-27T05:07:39.943Z,99.90
2018-04-27T05:10:07.605Z,99.80
2018-04-27T05:12:35.363Z,99.90
2018-04-27T05:15:03.240Z,99.90
2018-04-27T05:17:30.950Z,99.90
2018-04-27T05:19:58.003Z,99.90
2018-04-27T05:22:26.601Z,99.90
2018-04-27T05:24:54.121Z,99.90
2018-04-27T05:27:22.802Z,99.90
2018-04-27T05:29:50.416Z,99.90
2018-04-27T05:32:18.433Z,99.80
2018-04-27T05:34:46.060Z,99.80
2018-04-27T05:37:14.680Z,99.40
2018-04-27T05:39:42.746Z,99.40
2018-04-27T05:42:10.391Z,99.10
2018-04-27T05:44:38.276Z,99.10
2018-04-27T05:47:05.819Z,98.60
2018-04-27T05:49:33.347Z,98.70
2018-04-27T05:52:00.910Z,98.60
2018-04-27T05:54:28.457Z,99.10
2018-04-27T05:56:56.267Z,98.60
2018-04-27T05:59:23.867Z,98.80
2018-04-27T06:01:51.369Z,98.60
2018-04-27T06:04:18.908Z,98.30
2018-04-27T06:06:46.415Z,98.40
2018-04-27T06:09:13.951Z,98.40
2018-04-27T06:11:41.474Z,98.10
2018-04-27T06:14:09.018Z,97.80
2018-04-27T06:16:36.577Z,97.80
2018-04-27T06:19:04.862Z,97.80
2018-04-27T06:21:32.387Z,97.50
2018-04-27T06:23:59.964Z,97.40
2018-04-27T06:26:27.584Z,97.40
2018-04-27T06:28:55.153Z,97.10
2018-04-27T06:31:22.679Z,96.80
2018-04-27T06:33:50.226Z,96.50
2018-04-27T06:36:17.785Z,95.60
2018-04-27T06:38:46.097Z,95.70
2018-04-27T06:41:13.626Z,95.70
2018-04-27T06:43:41.198Z,94.50
2018-04-27T06:46:08.779Z,94.20
2018-04-27T06:48:36.319Z,94.10
2018-04-27T06:51:04.571Z,94.40
2018-04-27T06:53:32.150Z,93.60
2018-04-27T06:55:59.695Z,94.20
2018-04-27T06:58:27.981Z,93.40
2018-04-27T07:00:56.347Z,93.50
2018-04-27T07:03:23.862Z,93.40
2018-04-27T07:05:51.383Z,93.60
2018-04-27T07:08:19.724Z,93.60
2018-04-27T07:10:47.281Z,93.50
2018-04-27T07:13:14.786Z,92.70
2018-04-27T07:15:42.403Z,93.40
2018-04-27T07:18:09.945Z,93.60
2018-04-27T07:20:37.477Z,93.20
2018-04-27T07:23:05.025Z,93.00
2018-04-27T07:25:33.296Z,92.90
2018-04-27T07:28:01.235Z,92.90
2018-04-27T07:30:28.881Z,92.70
2018-04-27T07:32:56.417Z,92.80
2018-04-27T07:35:23.929Z,92.30
2018-04-27T07:37:51.472Z,92.00
2018-04-27T07:40:19.026Z,91.10
2018-04-27T07:42:46.550Z,90.70
2018-04-27T07:45:14.193Z,90.00
2018-04-27T07:47:41.639Z,90.20
2018-04-27T07:50:09.150Z,87.90
2018-04-27T07:52:36.688Z,89.20
2018-04-27T07:55:05.003Z,87.20
2018-04-27T07:57:32.524Z,87.20
2018-04-27T08:00:00.833Z,87.20
2018-04-27T08:02:28.442Z,87.00
2018-04-27T08:04:55.920Z,86.80
2018-04-27T08:07:23.435Z,82.10
2018-04-27T08:09:51.030Z,82.50
2018-04-27T08:12:18.583Z,84.90
2018-04-27T08:14:46.104Z,84.50
2018-04-27T08:17:13.655Z,86.30
2018-04-27T08:19:41.183Z,86.20
2018-04-27T08:22:09.501Z,82.10
2018-04-27T08:24:37.115Z,82.10
2018-04-27T08:27:04.598Z,82.10
2018-04-27T08:29:32.174Z,82.50
2018-04-27T08:31:59.739Z,84.40
2018-04-27T08:34:27.255Z,83.50
2018-04-27T08:36:55.618Z,82.10
2018-04-27T08:39:23.147Z,82.10
2018-04-27T08:41:50.712Z,80.40
2018-04-27T08:44:18.239Z,81.50
2018-04-27T08:46:46.536Z,80.70
2018-04-27T08:49:14.049Z,80.70
2018-04-27T08:51:41.745Z,80.20
2018-04-27T08:54:09.293Z,80.40
2018-04-27T08:56:37.611Z,80.70
2018-04-27T08:59:05.177Z,80.60
2018-04-27T09:01:32.699Z,79.70
2018-04-27T09:04:01.909Z,80.00
2018-04-27T09:06:29.477Z,80.00
2018-04-27T09:08:56.990Z,79.50
2018-04-27T09:11:24.623Z,80.00
2018-04-27T09:13:52.153Z,77.80
2018-04-27T09:16:19.819Z,79.40
2018-04-27T09:18:47.258Z,78.00
2018-04-27T09:21:15.859Z,77.10
2018-04-27T09:23:43.379Z,77.00
2018-04-27T09:26:10.905Z,78.80
2018-04-27T09:28:38.510Z,78.60
2018-04-27T09:31:07.556Z,77.30
2018-04-27T09:33:35.060Z,77.30
2018-04-27T09:36:02.595Z,78.60
2018-04-27T09:38:30.114Z,77.30
2018-04-27T09:40:57.657Z,78.00
2018-04-27T09:43:25.197Z,77.00
2018-04-27T09:45:52.722Z,78.00
2018-04-27T09:48:21.023Z,77.40
2018-04-27T09:50:48.625Z,77.30
2018-04-27T09:53:17.049Z,77.60
2018-04-27T09:55:44.542Z,77.60
2018-04-27T09:58:12.098Z,77.80
2018-04-27T10:00:39.662Z,77.00
2018-04-27T10:03:07.178Z,78.10
2018-04-27T10:05:34.718Z,78.10
2018-04-27T10:08:02.226Z,79.30
2018-04-27T10:10:29.752Z,76.70
2018-04-27T10:12:58.035Z,76.20
2018-04-27T10:15:25.553Z,76.30
2018-04-27T10:17:53.859Z,76.50
2018-04-27T10:20:21.423Z,76.60
2018-04-27T10:22:49.694Z,77.30
2018-04-27T10:25:17.233Z,77.30
2018-04-27T10:27:45.523Z,75.40
2018-04-27T10:30:14.142Z,75.20
2018-04-27T10:32:41.706Z,74.80
2018-04-27T10:35:09.207Z,74.00
2018-04-27T10:37:36.727Z,73.80
2018-04-27T10:40:05.120Z,72.50
2018-04-27T10:42:32.626Z,72.50
2018-04-27T10:45:00.158Z,71.70
2018-04-27T10:47:27.760Z,73.80
2018-04-27T10:49:56.028Z,71.90
2018-04-27T10:52:23.562Z,71.80
2018-04-27T10:54:51.101Z,72.30
2018-04-27T10:57:19.005Z,72.00
2018-04-27T10:59:46.523Z,74.20
2018-04-27T11:02:14.122Z,74.00
2018-04-27T11:04:43.569Z,72.60
2018-04-27T11:07:11.125Z,73.50
2018-04-27T11:09:38.676Z,73.70
2018-04-27T11:12:06.279Z,72.80
2018-04-27T11:14:33.807Z,72.00
2018-04-27T11:17:01.355Z,72.50
2018-04-27T11:19:28.908Z,72.90
2018-04-27T11:21:56.464Z,75.60
2018-04-27T11:24:25.355Z,77.10
2018-04-27T11:26:52.895Z,73.40
2018-04-27T11:29:20.447Z,71.50
2018-04-27T11:31:48.442Z,70.10
2018-04-27T11:34:15.966Z,72.00
2018-04-27T11:36:43.495Z,70.70
2018-04-27T11:39:11.011Z,68.80
2018-04-27T11:44:12.862Z,72.20
2018-04-27T11:46:40.403Z,71.90
2018-04-27T11:49:07.928Z,68.80
2018-04-27T11:51:35.457Z,65.90
2018-04-27T11:54:02.975Z,63.40
2018-04-27T11:56:30.558Z,66.50
2018-04-27T11:58:58.072Z,68.50
2018-04-27T12:01:25.614Z,69.20
2018-04-27T12:03:53.150Z,68.40
2018-04-27T12:06:20.667Z,68.00
2018-04-27T12:08:48.163Z,67.80
2018-04-27T12:11:15.749Z,69.30
2018-04-27T12:13:43.272Z,66.50
2018-04-27T12:16:10.787Z,69.40
2018-04-27T12:18:38.321Z,67.40
2018-04-27T12:21:05.833Z,68.50
2018-04-27T12:23:33.359Z,64.10
2018-04-27T12:26:01.014Z,67.70
2018-04-27T12:28:28.527Z,65.70
2018-04-27T12:30:56.041Z,67.70
2018-04-27T12:33:23.595Z,64.00
2018-04-27T12:35:51.102Z,61.00
2018-04-27T12:38:18.620Z,61.00
2018-04-27T12:40:46.167Z,60.30
2018-04-27T12:43:13.679Z,63.50
2018-04-27T12:45:41.957Z,69.10
2018-04-27T12:48:09.516Z,69.10
2018-04-27T12:50:37.035Z,67.40
2018-04-27T12:53:04.541Z,67.20
2018-04-27T12:55:32.861Z,66.70
2018-04-27T12:58:00.496Z,66.70
2018-04-27T13:00:27.995Z,67.90
2018-04-27T13:02:55.558Z,66.20
2018-04-27T13:05:23.064Z,66.00
2018-04-27T13:07:50.578Z,66.90
2018-04-27T13:10:18.121Z,64.80
2018-04-27T13:12:45.622Z,64.40
2018-04-27T13:15:13.942Z,62.50
2018-04-27T13:17:41.485Z,62.40
2018-04-27T13:20:09.234Z,61.80
2018-04-27T13:22:37.519Z,61.90
2018-04-27T13:25:06.011Z,62.90
2018-04-27T13:27:33.567Z,62.80
2018-04-27T13:30:01.083Z,59.60
2018-04-27T13:32:28.651Z,61.10
2018-04-27T13:34:56.172Z,61.90
2018-04-27T13:37:23.806Z,62.30
2018-04-27T13:39:51.341Z,61.20
2018-04-27T13:42:18.868Z,61.10
2018-04-27T13:44:46.406Z,60.00
2018-04-27T13:47:13.945Z,61.20
2018-04-27T13:49:41.458Z,63.10
2018-04-27T13:52:09.030Z,61.00
2018-04-27T13:54:36.627Z,65.10
2018-04-27T13:57:04.146Z,64.20
2018-04-27T13:59:31.723Z,65.00
2018-04-27T14:01:59.293Z,62.00
2018-04-27T14:04:26.807Z,63.60
2018-04-27T14:06:54.310Z,65.70
2018-04-27T14:09:21.841Z,65.40
2018-04-27T14:11:49.348Z,65.00
2018-04-27T14:14:16.854Z,65.10
2018-04-27T14:16:44.391Z,65.70
2018-04-27T14:19:11.898Z,67.50
2018-04-27T14:21:39.499Z,66.50
2018-04-27T14:24:07.019Z,67.50
2018-04-27T14:26:34.526Z,63.30
2018-04-27T14:29:02.045Z,63.70
2018-04-27T14:31:30.416Z,64.80
2018-04-27T14:33:58.153Z,62.30
2018-04-27T14:36:27.132Z,62.00
2018-04-27T14:38:54.665Z,62.30
2018-04-27T14:41:22.933Z,60.40
2018-04-27T14:43:50.446Z,60.30
2018-04-27T14:46:17.996Z,59.80
2018-04-27T14:48:46.262Z,60.40
2018-04-27T14:51:13.778Z,60.50
2018-04-27T14:53:41.329Z,60.30
2018-04-27T14:56:08.854Z,59.00
2018-04-27T14:58:36.364Z,60.40
2018-04-27T15:01:03.901Z,59.30
2018-04-27T15:03:31.423Z,60.90
2018-04-27T15:05:59.168Z,59.90
2018-04-27T15:08:26.986Z,59.00
2018-04-27T15:10:55.359Z,61.00
2018-04-27T15:13:22.875Z,60.90
2018-04-27T15:15:51.201Z,62.80
2018-04-27T15:18:18.747Z,62.80
2018-04-27T15:20:46.246Z,59.40
2018-04-27T15:23:13.772Z,59.70
2018-04-27T15:25:41.338Z,61.20
2018-04-27T15:28:08.855Z,61.60
2018-04-27T15:30:36.380Z,62.50
2018-04-27T15:33:03.922Z,61.00
2018-04-27T15:35:31.442Z,59.70
2018-04-27T15:37:59.775Z,58.60
2018-04-27T15:40:27.305Z,58.60
2018-04-27T15:42:54.831Z,59.30
2018-04-27T15:45:22.356Z,62.20
2018-04-27T15:47:49.867Z,59.80
2018-04-27T15:50:17.410Z,60.80
2018-04-27T15:52:45.777Z,62.00
2018-04-27T15:55:13.272Z,62.00
2018-04-27T15:57:40.829Z,64.10
2018-04-27T16:00:08.360Z,63.80
2018-04-27T16:02:35.909Z,62.70
2018-04-27T16:05:04.395Z,61.50
2018-04-27T16:07:31.903Z,61.70
2018-04-27T16:09:59.429Z,64.10
2018-04-27T16:12:27.253Z,67.10
2018-04-27T16:14:54.822Z,66.00
2018-04-27T16:17:22.309Z,64.30
2018-04-27T16:19:49.863Z,65.30
2018-04-27T16:22:17.395Z,64.30
2018-04-27T16:24:44.891Z,67.90
2018-04-27T16:27:12.411Z,65.30
2018-04-27T16:29:39.905Z,65.30
2018-04-27T16:32:07.422Z,65.40
2018-04-27T16:34:34.946Z,67.80
2018-04-27T16:37:02.455Z,66.50
2018-04-27T16:39:29.957Z,66.70
2018-04-27T16:41:57.582Z,65.20
2018-04-27T16:44:25.037Z,66.40
2018-04-27T16:46:52.555Z,66.90
2018-04-27T16:49:20.857Z,68.10
2018-04-27T16:51:48.434Z,68.20
2018-04-27T16:54:15.930Z,69.40
2018-04-27T16:56:43.490Z,70.40
2018-04-27T16:59:11.049Z,69.90
2018-04-27T17:01:39.176Z,70.50
2018-04-27T17:04:06.746Z,69.40
2018-04-27T17:06:34.277Z,71.70
2018-04-27T17:09:01.798Z,71.80
2018-04-27T17:11:29.391Z,71.40
2018-04-27T17:13:57.704Z,67.20
2018-04-27T17:16:25.207Z,67.00
2018-04-27T17:18:52.759Z,67.30
2018-04-27T17:21:20.274Z,68.10
2018-04-27T17:23:47.824Z,66.70
2018-04-27T17:26:15.343Z,66.40
2018-04-27T17:28:42.890Z,67.50
2018-04-27T17:31:10.436Z,69.30
2018-04-27T17:33:37.995Z,71.30
2018-04-27T17:36:05.510Z,69.60
2018-04-27T17:38:33.822Z,69.10
2018-04-27T17:41:02.754Z,69.10
2018-04-27T17:43:32.194Z,72.30
2018-04-27T17:45:59.786Z,71.50
2018-04-27T17:48:27.387Z,72.80
2018-04-27T17:50:54.898Z,72.80
2018-04-27T17:53:22.505Z,73.90
2018-04-27T17:55:49.960Z,73.10
2018-04-27T17:58:17.494Z,73.00
2018-04-27T18:00:45.067Z,73.50
2018-04-27T18:03:12.809Z,72.90
2018-04-27T18:05:40.325Z,73.40
2018-04-27T18:08:07.865Z,73.40
2018-04-27T18:10:35.394Z,74.70
2018-04-27T18:13:03.026Z,77.20
2018-04-27T18:15:31.372Z,74.90
2018-04-27T18:17:58.927Z,74.90
2018-04-27T18:20:26.433Z,75.50
2018-04-27T18:22:54.043Z,77.80
2018-04-27T18:25:21.748Z,76.40
2018-04-27T18:27:49.309Z,75.90
2018-04-27T18:30:16.782Z,75.30
2018-04-27T18:32:44.315Z,75.00
2018-04-27T18:35:11.861Z,74.40
2018-04-27T18:37:39.376Z,75.60
2018-04-27T18:40:06.950Z,75.90
2018-04-27T18:42:34.512Z,76.00
2018-04-27T18:45:02.040Z,75.00
2018-04-27T18:47:30.372Z,76.50
2018-04-27T18:49:58.535Z,76.40
2018-04-27T18:52:26.395Z,76.80
2018-04-27T18:54:54.416Z,78.80
2018-04-27T18:57:25.766Z,78.70
2018-04-27T18:59:54.063Z,78.80
2018-04-27T19:02:21.608Z,78.60
2018-04-27T19:04:49.897Z,79.10
2018-04-27T19:07:22.106Z,79.00
2018-04-27T19:09:49.614Z,79.20
2018-04-27T19:12:17.129Z,80.70
2018-04-27T19:14:44.663Z,80.30
2018-04-27T19:17:13.998Z,81.10
2018-04-27T19:19:41.522Z,81.30
2018-04-27T19:22:09.837Z,80.70
2018-04-27T19:24:39.371Z,80.70
2018-04-27T19:27:07.680Z,82.70
2018-04-27T19:29:35.242Z,82.70
2018-04-27T19:32:02.754Z,84.00
2018-04-27T19:34:30.303Z,84.70
2018-04-27T19:36:57.851Z,85.80
2018-04-27T19:39:25.423Z,83.30
2018-04-27T19:41:52.951Z,84.30
2018-04-27T19:44:21.293Z,86.40
2018-04-27T19:46:48.828Z,86.40
2018-04-27T19:49:16.354Z,87.40
2018-04-27T19:51:43.903Z,87.00
2018-04-27T19:54:11.429Z,89.80
2018-04-27T19:56:38.961Z,90.60
2018-04-27T19:59:06.636Z,90.90
2018-04-27T20:01:34.803Z,90.90
2018-04-27T20:04:03.641Z,91.30
2018-04-27T20:06:31.957Z,91.30
2018-04-27T20:08:59.501Z,91.20
2018-04-27T20:11:27.058Z,91.60
2018-04-27T20:13:55.432Z,92.20
2018-04-27T20:16:34.666Z,92.20
2018-04-27T20:19:02.901Z,92.30
2018-04-27T20:21:30.506Z,92.00
2018-04-27T20:23:58.021Z,92.00
2018-04-27T20:26:25.541Z,92.70
2018-04-27T20:28:53.051Z,92.80
2018-04-27T20:31:20.584Z,92.40
2018-04-27T20:33:48.124Z,92.50
2018-04-27T20:36:15.645Z,92.50
2018-04-27T20:38:43.199Z,92.80
2018-04-27T20:41:12.659Z,93.30
2018-04-27T20:43:40.197Z,93.40
2018-04-27T20:46:07.698Z,93.40
2018-04-27T20:48:35.241Z,93.40
2018-04-27T20:51:02.744Z,93.60
2018-04-27T20:53:31.785Z,93.70
2018-04-27T20:56:02.238Z,93.70
2018-04-27T20:58:30.660Z,94.10
2018-04-27T21:00:58.963Z,93.70
2018-04-27T21:03:27.285Z,93.10
2018-04-27T21:05:54.789Z,93.10
2018-04-27T21:08:23.067Z,93.90
2018-04-27T21:10:50.632Z,93.90
2018-04-27T21:13:18.921Z,93.90
2018-04-27T21:15:46.437Z,93.90
2018-04-27T21:18:15.918Z,93.90
2018-04-27T21:20:43.479Z,93.30
2018-04-27T21:23:11.004Z,93.00
2018-04-27T21:25:39.304Z,93.20
2018-04-27T21:28:07.763Z,92.90
2018-04-27T21:30:36.068Z,92.20
2018-04-27T21:33:04.516Z,92.20
2018-04-27T21:35:41.288Z,92.90
2018-04-27T21:38:25.385Z,92.90
2018-04-27T21:40:53.991Z,92.50
2018-04-27T21:43:21.514Z,91.80
2018-04-27T21:45:49.061Z,92.90
2018-04-27T21:48:16.571Z,91.80
2018-04-27T21:50:44.101Z,91.20
2018-04-27T21:53:11.651Z,90.80
2018-04-27T21:55:39.624Z,90.90
2018-04-27T21:58:10.594Z,90.30
2018-04-27T22:00:38.178Z,90.60
2018-04-27T22:03:08.657Z,90.70
2018-04-27T22:05:52.832Z,90.30
2018-04-27T22:08:30.971Z,90.40
2018-04-27T22:11:02.032Z,90.50
2018-04-27T22:13:29.561Z,90.60
2018-04-27T22:15:57.180Z,90.60
2018-04-27T22:18:24.740Z,90.80
2018-04-27T22:20:54.104Z,91.10
2018-04-27T22:23:33.214Z,91.10
2018-04-27T22:26:01.529Z,91.10
2018-04-27T22:28:37.116Z,91.00
2018-04-27T22:31:05.492Z,90.60
2018-04-27T22:33:33.818Z,91.40
2018-04-27T22:36:04.101Z,91.40
2018-04-27T22:38:44.386Z,91.20
2018-04-27T22:41:12.533Z,90.40
2018-04-27T22:43:42.397Z,90.60
2018-04-27T22:46:12.785Z,90.60
2018-04-27T22:51:49.838Z,90.30
2018-04-27T22:57:31.266Z,91.00
2018-04-27T23:00:15.294Z,92.00
2018-04-27T23:02:43.592Z,92.00
2018-04-27T23:05:13.795Z,92.40
2018-04-27T23:07:41.321Z,92.40
2018-04-27T23:10:08.843Z,92.60
2018-04-27T23:12:39.634Z,93.40
2018-04-27T23:15:10.028Z,93.40
2018-04-27T23:17:37.620Z,93.70
2018-04-27T23:20:05.846Z,93.60
2018-04-27T23:22:36.166Z,93.70
2018-04-27T23:25:05.568Z,94.00
2018-04-27T23:27:36.823Z,95.10
2018-04-27T23:30:05.305Z,95.10
2018-04-27T23:32:32.825Z,95.30
2018-04-27T23:35:00.387Z,95.60
2018-04-27T23:37:27.906Z,95.40
2018-04-27T23:39:55.474Z,95.90
2018-04-27T23:42:23.888Z,95.60
2018-04-27T23:44:51.406Z,95.50
2018-04-27T23:47:18.997Z,95.40
2018-04-27T23:49:46.538Z,95.60
2018-04-27T23:52:14.049Z,95.90
2018-04-27T23:54:41.670Z,95.80
2018-04-27T23:57:09.218Z,95.90
2018-04-27T23:59:39.258Z,96.00
